sensor_id;sensor_type;location;lat;lon;timestamp;temperature;humidity
46732;DHT22;32477;51.474;5.696;2022-08-19T00:00:32;17.00;99.90
46732;DHT22;32477;51.474;5.696;2022-08-19T00:02:58;17.00;99.90
46732;DHT22;32477;51.474;5.696;2022-08-19T00:05:23;17.00;99.90
46732;DHT22;32477;51.474;5.696;2022-08-19T00:07:50;17.10;99.90
46732;DHT22;32477;51.474;5.696;2022-08-19T00:10:17;17.00;99.90
46732;DHT22;32477;51.474;5.696;2022-08-19T00:12:44;16.90;99.90
46732;DHT22;32477;51.474;5.696;2022-08-19T00:15:13;16.80;99.90
46732;DHT22;32477;51.474;5.696;2022-08-19T00:17:41;16.90;99.90
46732;DHT22;32477;51.474;5.696;2022-08-19T00:20:08;16.80;99.90
46732;DHT22;32477;51.474;5.696;2022-08-19T00:22:36;16.80;99.90
46732;DHT22;32477;51.474;5.696;2022-08-19T00:25:02;16.80;99.90
46732;DHT22;32477;51.474;5.696;2022-08-19T00:27:28;16.80;99.90
46732;DHT22;32477;51.474;5.696;2022-08-19T00:29:54;16.80;99.90
46732;DHT22;32477;51.474;5.696;2022-08-19T00:32:20;16.70;99.90
46732;DHT22;32477;51.474;5.696;2022-08-19T00:34:46;16.60;99.90
46732;DHT22;32477;51.474;5.696;2022-08-19T00:37:12;16.60;99.90
46732;DHT22;32477;51.474;5.696;2022-08-19T00:39:37;16.60;99.90
46732;DHT22;32477;51.474;5.696;2022-08-19T00:42:03;16.70;99.90
46732;DHT22;32477;51.474;5.696;2022-08-19T00:44:30;16.70;99.90
46732;DHT22;32477;51.474;5.696;2022-08-19T00:46:57;16.60;99.90
46732;DHT22;32477;51.474;5.696;2022-08-19T00:49:49;16.50;99.90
46732;DHT22;32477;51.474;5.696;2022-08-19T00:52:24;16.50;99.90
46732;DHT22;32477;51.474;5.696;2022-08-19T00:54:54;16.50;99.90
46732;DHT22;32477;51.474;5.696;2022-08-19T00:57:28;16.50;99.90
46732;DHT22;32477;51.474;5.696;2022-08-19T00:59:56;16.50;99.90
46732;DHT22;32477;51.474;5.696;2022-08-19T01:02:23;16.50;99.90
46732;DHT22;32477;51.474;5.696;2022-08-19T01:04:49;16.50;99.90
46732;DHT22;32477;51.474;5.696;2022-08-19T01:07:16;16.60;99.90
46732;DHT22;32477;51.474;5.696;2022-08-19T01:09:42;16.50;99.90
46732;DHT22;32477;51.474;5.696;2022-08-19T01:12:08;16.50;99.90
46732;DHT22;32477;51.474;5.696;2022-08-19T01:14:34;16.50;99.90
46732;DHT22;32477;51.474;5.696;2022-08-19T01:17:00;16.50;99.90
46732;DHT22;32477;51.474;5.696;2022-08-19T01:19:35;16.60;99.90
46732;DHT22;32477;51.474;5.696;2022-08-19T01:22:27;16.50;99.90
46732;DHT22;32477;51.474;5.696;2022-08-19T01:24:52;16.60;99.90
46732;DHT22;32477;51.474;5.696;2022-08-19T01:27:17;16.60;99.90
46732;DHT22;32477;51.474;5.696;2022-08-19T01:29:44;16.60;99.90
46732;DHT22;32477;51.474;5.696;2022-08-19T01:32:12;16.50;99.90
46732;DHT22;32477;51.474;5.696;2022-08-19T01:34:39;16.50;99.90
46732;DHT22;32477;51.474;5.696;2022-08-19T01:37:10;16.40;99.90
46732;DHT22;32477;51.474;5.696;2022-08-19T01:39:37;16.40;99.90
46732;DHT22;32477;51.474;5.696;2022-08-19T01:42:04;16.40;99.90
46732;DHT22;32477;51.474;5.696;2022-08-19T01:44:30;16.40;99.90
46732;DHT22;32477;51.474;5.696;2022-08-19T01:46:56;16.30;99.90
46732;DHT22;32477;51.474;5.696;2022-08-19T01:49:23;16.40;99.90
46732;DHT22;32477;51.474;5.696;2022-08-19T01:51:50;16.30;99.90
46732;DHT22;32477;51.474;5.696;2022-08-19T01:54:17;16.30;99.90
46732;DHT22;32477;51.474;5.696;2022-08-19T01:56:43;16.30;99.90
46732;DHT22;32477;51.474;5.696;2022-08-19T01:59:14;16.30;99.90
46732;DHT22;32477;51.474;5.696;2022-08-19T02:01:41;16.30;99.90
46732;DHT22;32477;51.474;5.696;2022-08-19T02:04:07;16.30;99.90
46732;DHT22;32477;51.474;5.696;2022-08-19T02:06:33;16.30;99.90
46732;DHT22;32477;51.474;5.696;2022-08-19T02:08:59;16.30;99.90
46732;DHT22;32477;51.474;5.696;2022-08-19T02:11:28;16.40;99.90
46732;DHT22;32477;51.474;5.696;2022-08-19T02:13:58;16.50;99.90
46732;DHT22;32477;51.474;5.696;2022-08-19T02:16:24;16.40;99.90
46732;DHT22;32477;51.474;5.696;2022-08-19T02:18:50;16.40;99.90
46732;DHT22;32477;51.474;5.696;2022-08-19T02:21:17;16.30;99.90
46732;DHT22;32477;51.474;5.696;2022-08-19T02:23:44;16.30;99.90
46732;DHT22;32477;51.474;5.696;2022-08-19T02:26:12;16.20;99.90
46732;DHT22;32477;51.474;5.696;2022-08-19T02:28:39;16.20;99.90
46732;DHT22;32477;51.474;5.696;2022-08-19T02:31:12;16.10;99.90
46732;DHT22;32477;51.474;5.696;2022-08-19T02:33:40;16.20;99.90
46732;DHT22;32477;51.474;5.696;2022-08-19T02:36:06;16.20;99.90
46732;DHT22;32477;51.474;5.696;2022-08-19T02:38:32;16.20;99.90
46732;DHT22;32477;51.474;5.696;2022-08-19T02:41:07;16.10;99.90
46732;DHT22;32477;51.474;5.696;2022-08-19T02:43:36;16.00;99.90
46732;DHT22;32477;51.474;5.696;2022-08-19T02:46:11;16.00;99.90
46732;DHT22;32477;51.474;5.696;2022-08-19T02:48:37;16.00;99.90
46732;DHT22;32477;51.474;5.696;2022-08-19T02:51:03;15.90;99.90
46732;DHT22;32477;51.474;5.696;2022-08-19T02:53:29;16.00;99.90
46732;DHT22;32477;51.474;5.696;2022-08-19T02:55:54;15.90;99.90
46732;DHT22;32477;51.474;5.696;2022-08-19T02:58:21;15.90;99.90
46732;DHT22;32477;51.474;5.696;2022-08-19T03:00:50;15.90;99.90
46732;DHT22;32477;51.474;5.696;2022-08-19T03:03:17;15.80;99.90
46732;DHT22;32477;51.474;5.696;2022-08-19T03:05:43;15.70;99.90
46732;DHT22;32477;51.474;5.696;2022-08-19T03:08:09;15.70;99.90
46732;DHT22;32477;51.474;5.696;2022-08-19T03:10:45;15.70;99.90
46732;DHT22;32477;51.474;5.696;2022-08-19T03:13:16;15.80;99.90
46732;DHT22;32477;51.474;5.696;2022-08-19T03:15:45;15.70;99.90
46732;DHT22;32477;51.474;5.696;2022-08-19T03:18:11;15.70;99.90
46732;DHT22;32477;51.474;5.696;2022-08-19T03:20:45;15.60;99.90
46732;DHT22;32477;51.474;5.696;2022-08-19T03:23:11;15.60;99.90
46732;DHT22;32477;51.474;5.696;2022-08-19T03:25:43;15.70;99.90
46732;DHT22;32477;51.474;5.696;2022-08-19T03:28:14;15.60;99.90
46732;DHT22;32477;51.474;5.696;2022-08-19T03:30:41;15.80;99.90
46732;DHT22;32477;51.474;5.696;2022-08-19T03:33:09;15.90;99.90
46732;DHT22;32477;51.474;5.696;2022-08-19T03:35:35;16.00;99.90
46732;DHT22;32477;51.474;5.696;2022-08-19T03:38:03;16.00;99.90
46732;DHT22;32477;51.474;5.696;2022-08-19T03:40:28;16.10;99.90
46732;DHT22;32477;51.474;5.696;2022-08-19T03:42:56;16.10;99.90
46732;DHT22;32477;51.474;5.696;2022-08-19T03:45:22;16.00;99.90
46732;DHT22;32477;51.474;5.696;2022-08-19T03:47:48;16.00;99.90
46732;DHT22;32477;51.474;5.696;2022-08-19T03:50:14;15.90;99.90
46732;DHT22;32477;51.474;5.696;2022-08-19T03:52:40;15.80;99.90
46732;DHT22;32477;51.474;5.696;2022-08-19T03:55:06;15.70;99.90
46732;DHT22;32477;51.474;5.696;2022-08-19T03:57:33;15.70;99.90
46732;DHT22;32477;51.474;5.696;2022-08-19T04:00:00;15.70;99.90
46732;DHT22;32477;51.474;5.696;2022-08-19T04:02:26;15.80;99.90
46732;DHT22;32477;51.474;5.696;2022-08-19T04:04:53;15.80;99.90
46732;DHT22;32477;51.474;5.696;2022-08-19T04:07:20;15.70;99.90
46732;DHT22;32477;51.474;5.696;2022-08-19T04:09:47;15.70;99.90
46732;DHT22;32477;51.474;5.696;2022-08-19T04:12:12;15.70;99.90
46732;DHT22;32477;51.474;5.696;2022-08-19T04:14:38;15.80;99.90
46732;DHT22;32477;51.474;5.696;2022-08-19T04:17:05;15.80;99.90
46732;DHT22;32477;51.474;5.696;2022-08-19T04:19:31;15.80;99.90
46732;DHT22;32477;51.474;5.696;2022-08-19T04:21:57;15.70;99.90
46732;DHT22;32477;51.474;5.696;2022-08-19T04:24:24;15.70;99.90
46732;DHT22;32477;51.474;5.696;2022-08-19T04:26:50;15.70;99.90
46732;DHT22;32477;51.474;5.696;2022-08-19T04:29:23;15.60;99.90
46732;DHT22;32477;51.474;5.696;2022-08-19T04:31:51;15.50;99.90
46732;DHT22;32477;51.474;5.696;2022-08-19T04:34:20;15.40;99.90
46732;DHT22;32477;51.474;5.696;2022-08-19T04:36:50;15.30;99.90
46732;DHT22;32477;51.474;5.696;2022-08-19T04:39:23;15.40;99.90
46732;DHT22;32477;51.474;5.696;2022-08-19T04:42:09;15.40;99.90
46732;DHT22;32477;51.474;5.696;2022-08-19T04:44:53;15.40;99.90
46732;DHT22;32477;51.474;5.696;2022-08-19T04:47:18;15.40;99.90
46732;DHT22;32477;51.474;5.696;2022-08-19T04:49:44;15.40;99.90
46732;DHT22;32477;51.474;5.696;2022-08-19T04:52:09;15.40;99.90
46732;DHT22;32477;51.474;5.696;2022-08-19T04:54:35;15.40;99.90
46732;DHT22;32477;51.474;5.696;2022-08-19T04:57:01;15.50;99.90
46732;DHT22;32477;51.474;5.696;2022-08-19T04:59:26;15.60;99.90
46732;DHT22;32477;51.474;5.696;2022-08-19T05:01:52;15.70;99.90
46732;DHT22;32477;51.474;5.696;2022-08-19T05:04:19;15.70;99.90
46732;DHT22;32477;51.474;5.696;2022-08-19T05:06:47;15.80;99.90
46732;DHT22;32477;51.474;5.696;2022-08-19T05:09:13;15.80;99.90
46732;DHT22;32477;51.474;5.696;2022-08-19T05:11:39;15.80;99.90
46732;DHT22;32477;51.474;5.696;2022-08-19T05:14:07;15.80;99.90
46732;DHT22;32477;51.474;5.696;2022-08-19T05:16:33;15.80;99.90
46732;DHT22;32477;51.474;5.696;2022-08-19T05:18:59;15.90;99.90
46732;DHT22;32477;51.474;5.696;2022-08-19T05:21:43;16.00;99.90
46732;DHT22;32477;51.474;5.696;2022-08-19T05:24:29;16.00;99.90
46732;DHT22;32477;51.474;5.696;2022-08-19T05:26:56;16.10;99.90
46732;DHT22;32477;51.474;5.696;2022-08-19T05:29:24;16.10;99.90
46732;DHT22;32477;51.474;5.696;2022-08-19T05:31:51;16.20;99.90
46732;DHT22;32477;51.474;5.696;2022-08-19T05:34:18;16.30;99.90
46732;DHT22;32477;51.474;5.696;2022-08-19T05:36:47;16.40;99.90
46732;DHT22;32477;51.474;5.696;2022-08-19T05:39:20;16.40;99.90
46732;DHT22;32477;51.474;5.696;2022-08-19T05:41:51;16.50;99.90
46732;DHT22;32477;51.474;5.696;2022-08-19T05:44:18;16.70;99.90
46732;DHT22;32477;51.474;5.696;2022-08-19T05:46:46;16.90;99.90
46732;DHT22;32477;51.474;5.696;2022-08-19T05:49:13;17.00;99.90
46732;DHT22;32477;51.474;5.696;2022-08-19T05:51:39;17.20;99.90
46732;DHT22;32477;51.474;5.696;2022-08-19T05:54:05;17.30;99.90
46732;DHT22;32477;51.474;5.696;2022-08-19T05:56:32;17.50;99.90
46732;DHT22;32477;51.474;5.696;2022-08-19T05:58:58;17.70;99.90
46732;DHT22;32477;51.474;5.696;2022-08-19T06:01:25;17.80;99.90
46732;DHT22;32477;51.474;5.696;2022-08-19T06:03:51;18.00;99.90
46732;DHT22;32477;51.474;5.696;2022-08-19T06:06:17;18.00;99.90
46732;DHT22;32477;51.474;5.696;2022-08-19T06:08:43;18.10;99.90
46732;DHT22;32477;51.474;5.696;2022-08-19T06:11:35;18.30;99.90
46732;DHT22;32477;51.474;5.696;2022-08-19T06:14:07;18.40;99.90
46732;DHT22;32477;51.474;5.696;2022-08-19T06:16:35;18.60;99.90
46732;DHT22;32477;51.474;5.696;2022-08-19T06:19:05;18.80;99.90
46732;DHT22;32477;51.474;5.696;2022-08-19T06:21:33;19.00;99.90
46732;DHT22;32477;51.474;5.696;2022-08-19T06:23:59;19.30;99.90
46732;DHT22;32477;51.474;5.696;2022-08-19T06:26:25;19.60;99.90
46732;DHT22;32477;51.474;5.696;2022-08-19T06:28:52;19.80;99.90
46732;DHT22;32477;51.474;5.696;2022-08-19T06:31:20;19.90;99.90
46732;DHT22;32477;51.474;5.696;2022-08-19T06:33:47;20.00;99.90
46732;DHT22;32477;51.474;5.696;2022-08-19T06:36:35;19.90;99.90
46732;DHT22;32477;51.474;5.696;2022-08-19T06:39:04;20.10;99.90
46732;DHT22;32477;51.474;5.696;2022-08-19T06:41:31;20.60;99.90
46732;DHT22;32477;51.474;5.696;2022-08-19T06:43:59;20.80;99.90
46732;DHT22;32477;51.474;5.696;2022-08-19T06:46:25;20.80;99.90
46732;DHT22;32477;51.474;5.696;2022-08-19T06:48:52;21.10;99.90
46732;DHT22;32477;51.474;5.696;2022-08-19T06:51:19;21.30;99.90
46732;DHT22;32477;51.474;5.696;2022-08-19T06:53:46;21.40;99.90
46732;DHT22;32477;51.474;5.696;2022-08-19T06:56:18;21.60;99.90
46732;DHT22;32477;51.474;5.696;2022-08-19T06:58:44;22.00;99.90
46732;DHT22;32477;51.474;5.696;2022-08-19T07:01:12;22.40;99.90
46732;DHT22;32477;51.474;5.696;2022-08-19T07:03:38;22.70;99.90
46732;DHT22;32477;51.474;5.696;2022-08-19T07:06:10;23.00;99.90
46732;DHT22;32477;51.474;5.696;2022-08-19T07:08:37;22.90;99.90
46732;DHT22;32477;51.474;5.696;2022-08-19T07:11:07;22.90;99.90
46732;DHT22;32477;51.474;5.696;2022-08-19T07:13:34;23.30;99.90
46732;DHT22;32477;51.474;5.696;2022-08-19T07:16:11;23.90;99.90
46732;DHT22;32477;51.474;5.696;2022-08-19T07:18:38;23.80;99.90
46732;DHT22;32477;51.474;5.696;2022-08-19T07:21:18;24.20;99.90
46732;DHT22;32477;51.474;5.696;2022-08-19T07:23:45;24.50;99.90
46732;DHT22;32477;51.474;5.696;2022-08-19T07:28:36;24.70;99.90
46732;DHT22;32477;51.474;5.696;2022-08-19T07:31:05;25.30;99.90
46732;DHT22;32477;51.474;5.696;2022-08-19T07:33:31;25.60;99.90
46732;DHT22;32477;51.474;5.696;2022-08-19T07:35:58;25.80;99.90
46732;DHT22;32477;51.474;5.696;2022-08-19T07:38:24;25.90;99.90
46732;DHT22;32477;51.474;5.696;2022-08-19T07:40:49;26.20;99.90
46732;DHT22;32477;51.474;5.696;2022-08-19T07:43:16;26.10;99.90
46732;DHT22;32477;51.474;5.696;2022-08-19T07:45:45;26.20;99.90
46732;DHT22;32477;51.474;5.696;2022-08-19T07:48:12;26.00;99.90
46732;DHT22;32477;51.474;5.696;2022-08-19T07:50:38;26.00;99.90
46732;DHT22;32477;51.474;5.696;2022-08-19T07:53:03;26.40;99.90
46732;DHT22;32477;51.474;5.696;2022-08-19T07:55:29;26.10;99.90
46732;DHT22;32477;51.474;5.696;2022-08-19T07:57:55;26.00;99.90
46732;DHT22;32477;51.474;5.696;2022-08-19T08:00:21;26.20;99.90
46732;DHT22;32477;51.474;5.696;2022-08-19T08:02:46;26.60;99.90
46732;DHT22;32477;51.474;5.696;2022-08-19T08:05:12;26.80;99.90
46732;DHT22;32477;51.474;5.696;2022-08-19T08:07:56;27.00;99.90
46732;DHT22;32477;51.474;5.696;2022-08-19T08:10:40;27.40;99.90
46732;DHT22;32477;51.474;5.696;2022-08-19T08:13:06;27.80;99.90
46732;DHT22;32477;51.474;5.696;2022-08-19T08:15:32;28.20;99.90
46732;DHT22;32477;51.474;5.696;2022-08-19T08:17:57;28.10;99.90
46732;DHT22;32477;51.474;5.696;2022-08-19T08:20:23;28.20;99.40
46732;DHT22;32477;51.474;5.696;2022-08-19T08:22:49;28.00;99.90
46732;DHT22;32477;51.474;5.696;2022-08-19T08:25:34;28.30;99.50
46732;DHT22;32477;51.474;5.696;2022-08-19T08:28:01;28.50;99.10
46732;DHT22;32477;51.474;5.696;2022-08-19T08:30:29;28.30;99.00
46732;DHT22;32477;51.474;5.696;2022-08-19T08:32:55;29.10;98.50
46732;DHT22;32477;51.474;5.696;2022-08-19T08:35:22;29.30;97.40
46732;DHT22;32477;51.474;5.696;2022-08-19T08:37:49;28.60;98.40
46732;DHT22;32477;51.474;5.696;2022-08-19T08:40:33;28.30;98.80
46732;DHT22;32477;51.474;5.696;2022-08-19T08:43:13;27.90;98.90
46732;DHT22;32477;51.474;5.696;2022-08-19T08:46:21;28.50;98.60
46732;DHT22;32477;51.474;5.696;2022-08-19T08:51:36;29.20;96.90
46732;DHT22;32477;51.474;5.696;2022-08-19T08:54:05;29.40;97.10
46732;DHT22;32477;51.474;5.696;2022-08-19T08:56:32;29.50;96.50
46732;DHT22;32477;51.474;5.696;2022-08-19T08:59:21;29.50;96.10
46732;DHT22;32477;51.474;5.696;2022-08-19T09:01:51;29.60;95.20
46732;DHT22;32477;51.474;5.696;2022-08-19T09:04:17;29.40;95.10
46732;DHT22;32477;51.474;5.696;2022-08-19T09:10:02;28.90;95.30
46732;DHT22;32477;51.474;5.696;2022-08-19T09:14:58;28.90;95.50
46732;DHT22;32477;51.474;5.696;2022-08-19T09:17:27;29.30;95.00
46732;DHT22;32477;51.474;5.696;2022-08-19T09:19:57;29.80;94.60
46732;DHT22;32477;51.474;5.696;2022-08-19T09:22:23;30.50;93.70
46732;DHT22;32477;51.474;5.696;2022-08-19T09:24:50;30.50;92.60
46732;DHT22;32477;51.474;5.696;2022-08-19T09:27:18;30.60;92.60
46732;DHT22;32477;51.474;5.696;2022-08-19T09:29:44;30.50;92.70
46732;DHT22;32477;51.474;5.696;2022-08-19T09:32:09;30.60;92.90
46732;DHT22;32477;51.474;5.696;2022-08-19T09:34:35;30.30;92.50
46732;DHT22;32477;51.474;5.696;2022-08-19T09:37:01;30.40;92.50
46732;DHT22;32477;51.474;5.696;2022-08-19T09:39:28;29.60;93.20
46732;DHT22;32477;51.474;5.696;2022-08-19T09:41:56;29.80;93.20
46732;DHT22;32477;51.474;5.696;2022-08-19T09:44:21;29.90;93.20
46732;DHT22;32477;51.474;5.696;2022-08-19T09:46:47;30.20;92.70
46732;DHT22;32477;51.474;5.696;2022-08-19T09:49:13;30.50;93.00
46732;DHT22;32477;51.474;5.696;2022-08-19T09:51:38;31.10;92.30
46732;DHT22;32477;51.474;5.696;2022-08-19T09:54:04;30.90;91.90
46732;DHT22;32477;51.474;5.696;2022-08-19T09:56:30;31.10;92.00
46732;DHT22;32477;51.474;5.696;2022-08-19T09:59:00;32.00;91.40
46732;DHT22;32477;51.474;5.696;2022-08-19T10:01:28;31.40;91.60
46732;DHT22;32477;51.474;5.696;2022-08-19T10:03:56;30.60;91.90
46732;DHT22;32477;51.474;5.696;2022-08-19T10:06:24;29.90;91.80
46732;DHT22;32477;51.474;5.696;2022-08-19T10:08:51;30.90;91.20
46732;DHT22;32477;51.474;5.696;2022-08-19T10:11:18;31.00;91.00
46732;DHT22;32477;51.474;5.696;2022-08-19T10:13:45;30.70;91.20
46732;DHT22;32477;51.474;5.696;2022-08-19T10:16:19;29.90;92.10
46732;DHT22;32477;51.474;5.696;2022-08-19T10:18:47;28.90;93.10
46732;DHT22;32477;51.474;5.696;2022-08-19T10:21:18;28.10;94.50
46732;DHT22;32477;51.474;5.696;2022-08-19T10:23:47;28.10;95.60
46732;DHT22;32477;51.474;5.696;2022-08-19T10:26:16;29.00;94.10
46732;DHT22;32477;51.474;5.696;2022-08-19T10:28:42;28.60;94.80
46732;DHT22;32477;51.474;5.696;2022-08-19T10:31:11;28.70;94.80
46732;DHT22;32477;51.474;5.696;2022-08-19T10:33:37;28.70;94.80
46732;DHT22;32477;51.474;5.696;2022-08-19T10:36:13;28.20;95.30
46732;DHT22;32477;51.474;5.696;2022-08-19T10:38:44;28.20;95.50
46732;DHT22;32477;51.474;5.696;2022-08-19T10:41:20;28.40;95.80
46732;DHT22;32477;51.474;5.696;2022-08-19T10:43:47;28.60;95.20
46732;DHT22;32477;51.474;5.696;2022-08-19T10:46:20;28.40;95.60
46732;DHT22;32477;51.474;5.696;2022-08-19T10:48:47;28.10;95.50
46732;DHT22;32477;51.474;5.696;2022-08-19T10:51:13;27.50;96.10
46732;DHT22;32477;51.474;5.696;2022-08-19T10:53:58;27.40;96.40
46732;DHT22;32477;51.474;5.696;2022-08-19T10:56:25;27.00;96.90
46732;DHT22;32477;51.474;5.696;2022-08-19T10:59:10;26.70;97.40
46732;DHT22;32477;51.474;5.696;2022-08-19T11:01:36;27.20;97.20
46732;DHT22;32477;51.474;5.696;2022-08-19T11:04:03;28.30;95.80
46732;DHT22;32477;51.474;5.696;2022-08-19T11:06:31;28.90;94.90
46732;DHT22;32477;51.474;5.696;2022-08-19T11:08:58;30.10;94.10
46732;DHT22;32477;51.474;5.696;2022-08-19T11:11:25;30.80;92.60
46732;DHT22;32477;51.474;5.696;2022-08-19T11:13:51;30.20;92.60
46732;DHT22;32477;51.474;5.696;2022-08-19T11:16:22;30.30;93.00
46732;DHT22;32477;51.474;5.696;2022-08-19T11:18:52;30.60;91.80
46732;DHT22;32477;51.474;5.696;2022-08-19T11:21:26;29.10;92.70
46732;DHT22;32477;51.474;5.696;2022-08-19T11:23:57;28.50;94.00
46732;DHT22;32477;51.474;5.696;2022-08-19T11:26:24;29.20;94.20
46732;DHT22;32477;51.474;5.696;2022-08-19T11:28:50;31.00;92.10
46732;DHT22;32477;51.474;5.696;2022-08-19T11:31:21;31.90;90.80
46732;DHT22;32477;51.474;5.696;2022-08-19T11:33:47;32.60;89.70
46732;DHT22;32477;51.474;5.696;2022-08-19T11:36:16;31.90;90.20
46732;DHT22;32477;51.474;5.696;2022-08-19T11:38:44;30.70;91.40
46732;DHT22;32477;51.474;5.696;2022-08-19T11:41:10;29.60;92.10
46732;DHT22;32477;51.474;5.696;2022-08-19T11:43:37;28.80;93.10
46732;DHT22;32477;51.474;5.696;2022-08-19T11:46:07;29.20;93.20
46732;DHT22;32477;51.474;5.696;2022-08-19T11:48:34;30.10;92.60
46732;DHT22;32477;51.474;5.696;2022-08-19T11:51:05;31.20;91.20
46732;DHT22;32477;51.474;5.696;2022-08-19T11:53:32;32.10;90.60
46732;DHT22;32477;51.474;5.696;2022-08-19T11:55:58;32.80;88.20
46732;DHT22;32477;51.474;5.696;2022-08-19T11:58:23;31.10;90.50
46732;DHT22;32477;51.474;5.696;2022-08-19T12:00:50;29.80;91.60
46732;DHT22;32477;51.474;5.696;2022-08-19T12:03:16;29.90;92.10
46732;DHT22;32477;51.474;5.696;2022-08-19T12:05:42;29.70;91.80
46732;DHT22;32477;51.474;5.696;2022-08-19T12:08:08;30.20;91.20
46732;DHT22;32477;51.474;5.696;2022-08-19T12:10:34;30.90;90.60
46732;DHT22;32477;51.474;5.696;2022-08-19T12:13:00;32.20;88.60
46732;DHT22;32477;51.474;5.696;2022-08-19T12:15:26;32.50;87.20
46732;DHT22;32477;51.474;5.696;2022-08-19T12:17:54;31.90;87.60
46732;DHT22;32477;51.474;5.696;2022-08-19T12:20:23;32.20;87.30
46732;DHT22;32477;51.474;5.696;2022-08-19T12:22:48;32.40;87.80
46732;DHT22;32477;51.474;5.696;2022-08-19T12:25:14;32.70;87.20
46732;DHT22;32477;51.474;5.696;2022-08-19T12:27:40;32.50;85.60
46732;DHT22;32477;51.474;5.696;2022-08-19T12:30:08;31.10;88.10
46732;DHT22;32477;51.474;5.696;2022-08-19T12:32:35;31.10;89.80
46732;DHT22;32477;51.474;5.696;2022-08-19T12:35:00;32.20;89.10
46732;DHT22;32477;51.474;5.696;2022-08-19T12:37:26;32.70;87.30
46732;DHT22;32477;51.474;5.696;2022-08-19T12:39:52;34.00;85.80
46732;DHT22;32477;51.474;5.696;2022-08-19T12:42:17;33.20;85.90
46732;DHT22;32477;51.474;5.696;2022-08-19T12:44:44;32.50;86.50
46732;DHT22;32477;51.474;5.696;2022-08-19T12:47:11;31.90;88.20
46732;DHT22;32477;51.474;5.696;2022-08-19T12:49:37;31.70;88.30
46732;DHT22;32477;51.474;5.696;2022-08-19T12:52:08;31.40;89.60
46732;DHT22;32477;51.474;5.696;2022-08-19T12:54:35;30.50;90.30
46732;DHT22;32477;51.474;5.696;2022-08-19T12:57:04;30.00;90.70
46732;DHT22;32477;51.474;5.696;2022-08-19T12:59:29;30.20;91.00
46732;DHT22;32477;51.474;5.696;2022-08-19T13:01:55;29.90;91.00
46732;DHT22;32477;51.474;5.696;2022-08-19T13:04:20;28.90;91.90
46732;DHT22;32477;51.474;5.696;2022-08-19T13:06:46;28.30;92.90
46732;DHT22;32477;51.474;5.696;2022-08-19T13:09:11;27.90;93.80
46732;DHT22;32477;51.474;5.696;2022-08-19T13:11:37;27.60;94.10
46732;DHT22;32477;51.474;5.696;2022-08-19T13:14:03;27.70;94.40
46732;DHT22;32477;51.474;5.696;2022-08-19T13:16:29;27.60;94.60
46732;DHT22;32477;51.474;5.696;2022-08-19T13:18:56;28.60;94.30
46732;DHT22;32477;51.474;5.696;2022-08-19T13:21:24;29.90;92.60
46732;DHT22;32477;51.474;5.696;2022-08-19T13:23:51;31.00;91.80
46732;DHT22;32477;51.474;5.696;2022-08-19T13:26:17;31.70;90.70
46732;DHT22;32477;51.474;5.696;2022-08-19T13:28:44;31.70;90.60
46732;DHT22;32477;51.474;5.696;2022-08-19T13:31:30;32.10;90.10
46732;DHT22;32477;51.474;5.696;2022-08-19T13:34:17;31.40;90.70
46732;DHT22;32477;51.474;5.696;2022-08-19T13:36:42;30.90;91.20
46732;DHT22;32477;51.474;5.696;2022-08-19T13:39:09;30.90;91.00
46732;DHT22;32477;51.474;5.696;2022-08-19T13:41:35;30.40;91.60
46732;DHT22;32477;51.474;5.696;2022-08-19T13:44:02;29.80;92.10
46732;DHT22;32477;51.474;5.696;2022-08-19T13:46:28;28.80;93.20
46732;DHT22;32477;51.474;5.696;2022-08-19T13:48:55;29.00;93.50
46732;DHT22;32477;51.474;5.696;2022-08-19T13:51:22;29.40;93.00
46732;DHT22;32477;51.474;5.696;2022-08-19T13:53:47;29.60;92.60
46732;DHT22;32477;51.474;5.696;2022-08-19T13:56:17;30.00;92.60
46732;DHT22;32477;51.474;5.696;2022-08-19T13:58:44;30.60;92.10
46732;DHT22;32477;51.474;5.696;2022-08-19T14:01:10;29.70;92.80
46732;DHT22;32477;51.474;5.696;2022-08-19T14:03:36;30.00;92.70
46732;DHT22;32477;51.474;5.696;2022-08-19T14:06:02;30.00;92.60
46732;DHT22;32477;51.474;5.696;2022-08-19T14:08:28;29.50;93.50
46732;DHT22;32477;51.474;5.696;2022-08-19T14:10:57;30.30;92.60
46732;DHT22;32477;51.474;5.696;2022-08-19T14:13:24;29.80;93.00
46732;DHT22;32477;51.474;5.696;2022-08-19T14:15:50;29.70;93.10
46732;DHT22;32477;51.474;5.696;2022-08-19T14:18:17;29.50;93.40
46732;DHT22;32477;51.474;5.696;2022-08-19T14:20:43;29.30;93.50
46732;DHT22;32477;51.474;5.696;2022-08-19T14:23:10;28.80;94.10
46732;DHT22;32477;51.474;5.696;2022-08-19T14:25:37;28.30;94.60
46732;DHT22;32477;51.474;5.696;2022-08-19T14:28:03;28.10;95.20
46732;DHT22;32477;51.474;5.696;2022-08-19T14:30:33;27.90;95.40
46732;DHT22;32477;51.474;5.696;2022-08-19T14:33:00;27.80;95.90
46732;DHT22;32477;51.474;5.696;2022-08-19T14:35:28;28.00;95.90
46732;DHT22;32477;51.474;5.696;2022-08-19T14:37:55;27.80;95.90
46732;DHT22;32477;51.474;5.696;2022-08-19T14:40:23;27.80;96.00
46732;DHT22;32477;51.474;5.696;2022-08-19T14:42:58;28.00;96.00
46732;DHT22;32477;51.474;5.696;2022-08-19T14:45:32;28.10;96.00
46732;DHT22;32477;51.474;5.696;2022-08-19T14:47:58;27.90;95.90
46732;DHT22;32477;51.474;5.696;2022-08-19T14:50:25;28.00;95.70
46732;DHT22;32477;51.474;5.696;2022-08-19T14:53:01;27.80;95.80
46732;DHT22;32477;51.474;5.696;2022-08-19T14:55:29;27.50;96.00
46732;DHT22;32477;51.474;5.696;2022-08-19T14:57:55;27.20;96.60
46732;DHT22;32477;51.474;5.696;2022-08-19T15:00:21;27.10;97.00
46732;DHT22;32477;51.474;5.696;2022-08-19T15:02:48;26.90;97.30
46732;DHT22;32477;51.474;5.696;2022-08-19T15:05:14;26.90;97.60
46732;DHT22;32477;51.474;5.696;2022-08-19T15:07:40;26.80;98.00
46732;DHT22;32477;51.474;5.696;2022-08-19T15:10:07;26.90;98.10
46732;DHT22;32477;51.474;5.696;2022-08-19T15:12:35;27.00;97.80
46732;DHT22;32477;51.474;5.696;2022-08-19T15:15:01;26.90;98.00
46732;DHT22;32477;51.474;5.696;2022-08-19T15:17:28;26.90;98.10
46732;DHT22;32477;51.474;5.696;2022-08-19T15:19:55;26.70;98.50
46732;DHT22;32477;51.474;5.696;2022-08-19T15:22:21;26.70;98.60
46732;DHT22;32477;51.474;5.696;2022-08-19T15:24:47;26.70;98.50
46732;DHT22;32477;51.474;5.696;2022-08-19T15:27:13;26.70;98.70
46732;DHT22;32477;51.474;5.696;2022-08-19T15:29:39;26.60;98.70
46732;DHT22;32477;51.474;5.696;2022-08-19T15:32:06;26.70;98.60
46732;DHT22;32477;51.474;5.696;2022-08-19T15:34:33;26.80;98.20
46732;DHT22;32477;51.474;5.696;2022-08-19T15:36:59;26.60;98.50
46732;DHT22;32477;51.474;5.696;2022-08-19T15:39:25;26.60;98.70
46732;DHT22;32477;51.474;5.696;2022-08-19T15:41:50;26.70;98.60
46732;DHT22;32477;51.474;5.696;2022-08-19T15:44:17;26.70;98.80
46732;DHT22;32477;51.474;5.696;2022-08-19T15:46:45;26.60;98.40